NCAR-RAP Real-Time Weather Data

Output produced by METARs form (17 November 2017  17:45 UTC)
found at http://weather.rap.ucar.edu/surface/
 
KFZY 171654Z AUTO 31012KT 10SM CLR 01/M07 A3020 RMK AO2 SLP233 T00061067
KFZY 171603Z AUTO 31009KT 10SM SCT025 01/M07 A3022 RMK AO2 T00061067
KFZY 171554Z AUTO 31011KT 290V350 10SM BKN025 01/M07 A3021 RMK AO2 SLP237 T00061067
KFZY 171454Z AUTO 31010G18KT 10SM OVC023 M01/M06 A3022 RMK AO2 SLP239 T10111061 51015
KFZY 171354Z AUTO 32013KT 10SM OVC022 M01/M06 A3022 RMK AO2 SLP238 T10111061
KFZY 171254Z AUTO 31009KT 10SM OVC021 M01/M06 A3020 RMK AO2 SLP231 T10111056
KFZY 171154Z AUTO 32014G19KT 10SM OVC021 M01/M05 A3018 RMK AO2 SLP222 70011 T10061050 10017 21006 53026
KFZY 171054Z AUTO 33015G25KT 10SM OVC023 00/M05 A3015 RMK AO2 PK WND 31027/1024 SLP213 T00001050
KFZY 170954Z AUTO 32013G21KT 10SM OVC024 01/M03 A3011 RMK AO2 SLP202 T00111033
KFZY 170854Z AUTO 31013G25KT 10SM BKN025 OVC031 02/M03 A3010 RMK AO2 SLP196 T00171033 51023
KFZY 170754Z AUTO 31017G22KT 10SM OVC024 01/M04 A3009 RMK AO2 SLP192 T00111039
KFZY 170654Z AUTO 31011G23KT 10SM OVC022 02/M03 A3005 RMK AO2 SLP180 T00171033
KFZY 170554Z AUTO 31013G22KT 10SM OVC021 02/M02 A3003 RMK AO2 SLP171 60001 T00171022 10050 20017 52023
KFZY 170454Z AUTO 30013G24KT 10SM OVC022 02/M02 A3001 RMK AO2 PK WND 33026/0414 SLP164 T00221017 401000022
KFZY 170354Z AUTO 31014KT 10SM OVC025 03/M02 A2998 RMK AO2 SLP154 T00281017
KFZY 170254Z AUTO 31017G26KT 10SM OVC026 03/M02 A2996 RMK AO2 PK WND 30028/0228 SLP147 60001 T00331017 51028
KFZY 170154Z AUTO 30018G25KT 10SM OVC026 04/M01 A2993 RMK AO2 PK WND 32028/0129 RAE0059B16E48 SLP139 P0000 T00391006
KFZY 170118Z AUTO 31016G22KT 10SM -RA FEW019 BKN028 OVC034 04/00 A2991 RMK AO2 PK WND 30026/0055 RAE0059B16 P0000 T00390000
KFZY 170109Z AUTO 31016G23KT 10SM SCT021 BKN030 OVC034 04/01 A2991 RMK AO2 PK WND 30026/0055 RAE0059 P0000 T00390006
KFZY 170054Z AUTO 30017G26KT 10SM -RA BKN021 OVC026 04/02 A2990 RMK AO2 PK WND 32027/0037 RAE07B27 SLP128 P0001 T00390017
KFZY 170034Z AUTO 29015G26KT 10SM -RA BKN023 OVC035 05/01 A2989 RMK AO2 PK WND 31026/0026 RAE07B27 P0000 T00500011
KFZY 170013Z AUTO 29015G21KT 10SM FEW027 BKN036 OVC045 05/01 A2988 RMK AO2 RAE07 P0000 T00500011
KFZY 162354Z AUTO 30019G27KT 10SM -RA FEW021 BKN025 OVC042 04/01 A2987 RMK AO2 PK WND 31027/2354 RAB39 SLP118 P0002 60010 T00440011 10089 20044 51019
KFZY 162349Z AUTO 29013G22KT 7SM -RA FEW023 BKN028 OVC037 04/01 A2987 RMK AO2 RAB39 P0002
KFZY 162313Z AUTO 30014G22KT 10SM SCT028 BKN038 OVC049 06/01 A2986 RMK AO2 T00560011
KFZY 162254Z AUTO 29014G21KT 10SM BKN028 OVC036 06/01 A2985 RMK AO2 RAE19 SLP110 P0000 T00560011
KFZY 162154Z AUTO 29018G24KT 10SM -RA BKN020 OVC027 05/02 A2981 RMK AO2 PK WND 27029/2133 RAE14B39 SLP099 P0003 T00500022
KFZY 162054Z AUTO 24012G22KT 5SM -RA FEW015 BKN028 OVC034 06/03 A2977 RMK AO2 SLP084 P0004 60005 T00560028 53016
KFZY 162048Z AUTO 25013G21KT 3SM -RA BR FEW015 OVC027 05/03 A2977 RMK AO2 P0003
KFZY 162044Z AUTO 26014G21KT 2 1/2SM -RA BR FEW015 SCT022 OVC030 05/03 A2977 RMK AO2 P0003 T00500028
KFZY 162014Z AUTO 25009G19KT 8SM -RA BKN027 OVC032 06/02 A2976 RMK AO2 P0000 T00610022
KFZY 161954Z AUTO 26012G21KT 7SM -RA SCT029 BKN035 OVC048 06/03 A2975 RMK AO2 RAB29 SLP077 P0001 T00610028
KFZY 161854Z AUTO 25016G23KT 10SM BKN035 BKN042 OVC050 08/01 A2974 RMK AO2 SLP071 T00830011
KFZY 161754Z AUTO 25011KT 10SM BKN038 OVC047 09/02 A2973 RMK AO2 SLP068 60000 T00890017 10100 20078 57001
KFZY 161654Z AUTO 24016G21KT 10SM SCT039 BKN049 BKN055 09/02 A2972 RMK AO2 SLP066 T00940022
KFZY 161554Z AUTO 25008KT 10SM BKN033 OVC042 09/03 A2974 RMK AO2 SLP071 T00940028
KFZY 161454Z AUTO 22012G18KT 10SM SCT036 BKN065 OVC090 09/04 A2973 RMK AO2 SLP069 60000 T00940039 50003
KFZY 161354Z AUTO 21010G14KT 10SM FEW042 BKN050 BKN070 09/05 A2974 RMK AO2 RAB18E28 SLP072 P0000 T00890050
KFZY 161254Z AUTO 22006KT 10SM BKN047 OVC060 08/04 A2974 RMK AO2 RAB32E43 SLP071 P0000 T00830044 TSNO
KFZY 161154Z AUTO 21012KT 10SM FEW060 BKN090 08/04 A2972 RMK AO2 RAB1059E27 SLP066 P0000 60001 70002 T00780039 10083 20072 55001
KFZY 161134Z AUTO 20011G19KT 10SM FEW026 SCT055 OVC090 08/04 A2971 RMK AO2 RAB1059E27 P0000 T00830039
KFZY 161111Z AUTO 22009G23KT 10SM -RA BKN027 OVC035 08/04 A2973 RMK AO2 RAB1059 P0000 T00830044
KFZY 161054Z AUTO 19010G18KT 10SM FEW029 BKN035 OVC044 08/04 A2972 RMK AO2 RAB12E39 SLP065 P0000 T00830039
KFZY 160954Z AUTO 19012KT 10SM SCT039 SCT047 BKN080 08/03 A2972 RMK AO2 SLP065 T00830033
KFZY 160854Z AUTO 19011KT 10SM OVC036 08/03 A2972 RMK AO2 SLP066 60001 T00830033 56022
KFZY 160754Z AUTO 18012KT 10SM OVC039 08/03 A2974 RMK AO2 RAE06B34E47 SLP074 P0000 T00830033
KFZY 160654Z AUTO 18014G22KT 8SM -RA OVC037 08/03 A2976 RMK AO2 SLP080 P0001 T00780033
KFZY 160554Z AUTO 16011G18KT 7SM -RA OVC043 07/03 A2979 RMK AO2 RAB02 SLP088 P0001 60001 T00720028 10083 20056 56028
KFZY 160454Z AUTO 15008G20KT 120V190 10SM BKN065 BKN080 OVC090 08/01 A2980 RMK AO2 RAB11E24 SLP092 P0000 T00830011 400831039
KFZY 160354Z AUTO 16008G16KT 10SM BKN070 OVC085 08/01 A2984 RMK AO2 RAE0257B19E30 SLP108 P0000 T00780006
KFZY 160254Z AUTO 15006KT 10SM -RA FEW050 SCT080 BKN095 07/M01 A2987 RMK AO2 RAB48 SLP118 P0000 60000 T00721006 56022
KFZY 160154Z AUTO 13008KT 10SM FEW080 BKN110 07/M01 A2988 RMK AO2 SLP124 T00671011
KFZY 160054Z AUTO 13008KT 110V170 10SM BKN090 BKN110 06/M02 A2991 RMK AO2 SLP133 T00611017
KFZY 152354Z AUTO 14007G15KT 10SM FEW120 06/M02 A2994 RMK AO2 SLP141 T00561017 10078 20056 58022
KFZY 152254Z AUTO 13008KT 10SM CLR 06/M02 A2996 RMK AO2 SLP151 T00611022
KFZY 152154Z AUTO 13006KT 10SM CLR 07/M02 A2998 RMK AO2 SLP155 T00671022
KFZY 152054Z AUTO 13009KT 10SM CLR 07/M03 A3000 RMK AO2 SLP163 T00721028 58028
KFZY 151954Z AUTO 14006KT 10SM CLR 08/M02 A3003 RMK AO2 SLP174 T00781022
KFZY 151854Z AUTO 12006KT 10SM CLR 07/M01 A3006 RMK AO2 SLP184 T00721006
KFZY 151754Z AUTO 12007KT 080V160 10SM CLR 07/M01 A3009 RMK AO2 SLP192 I6000 T00721006 10072 21022 58044
KFZY 151654Z AUTO VRB05KT 10SM CLR 07/01 A3013 RMK AO2 SLP209 T00670006
KFZY 151554Z AUTO 14007KT 10SM CLR 05/01 A3019 RMK AO2 SLP226 T00500006
KFZY 151454Z AUTO 12005KT 7SM CLR 03/01 A3022 RMK AO2 SLP236 I3000 T00330006 58017
KFZY 151354Z AUTO 12005KT 5SM BR CLR 01/00 A3023 RMK AO2 SLP242 I1000 T00110000
KFZY 151254Z AUTO 10003KT 4SM BR CLR M01/M02 A3026 RMK AO2 SLP254 T10061017
KFZY 151154Z AUTO 00000KT 4SM BR CLR M02/M03 A3027 RMK AO2 SLP255 I1000 I6002 T10171028 11011 21039 58003
KFZY 151054Z AUTO VRB03KT 5SM BR FEW018 M02/M03 A3028 RMK AO2 SLP259 I1000 T10171028
KFZY 150954Z AUTO 11003KT 5SM BR CLR M02/M03 A3028 RMK AO2 SLP259 T10221033
KFZY 150854Z AUTO 00000KT 7SM CLR M03/M05 A3028 RMK AO2 SLP258 I1001 I3002 T10331050 58008
KFZY 150754Z AUTO 11003KT 6SM BR CLR M03/M04 A3029 RMK AO2 SLP264 I1000 T10331039
KFZY 150654Z AUTO 00000KT 3SM BR CLR M02/M03 A3030 RMK AO2 SLP265 I1001 T10221033
KFZY 150554Z AUTO 00000KT 8SM CLR M01/M02 A3030 RMK AO2 SLP266 T10111022 10033 21017 55000
KFZY 150454Z AUTO 00000KT 9SM FEW050 M01/M02 A3030 RMK AO2 SLP264 T10111022 400611011
KFZY 150354Z AUTO 00000KT 10SM OVC050 01/M01 A3030 RMK AO2 SLP264 T00111006
KFZY 150254Z AUTO 00000KT 10SM OVC055 02/M01 A3030 RMK AO2 SLP266 T00171006 56006
KFZY 150154Z AUTO 00000KT 10SM OVC055 03/M01 A3031 RMK AO2 SLP269 T00281006
KFZY 150054Z AUTO 00000KT 10SM OVC055 03/M01 A3031 RMK AO2 SLP268 T00281011
KFZY 142354Z AUTO 00000KT 10SM OVC060 03/M02 A3032 RMK AO2 SLP272 T00331017 10061 20028 58001
KFZY 142254Z AUTO 00000KT 10SM OVC065 03/M02 A3033 RMK AO2 SLP275 T00331017
KFZY 142154Z AUTO 32003KT 10SM OVC065 04/M02 A3033 RMK AO2 SLP276 T00391022
KFZY 142054Z AUTO 33005KT 10SM OVC060 05/M02 A3033 RMK AO2 SLP274 T00501017 55001
KFZY 141954Z AUTO 32006KT 10SM OVC065 06/M02 A3032 RMK AO2 SLP270 T00561022
KFZY 141854Z AUTO 34006KT 10SM OVC065 06/M02 A3032 RMK AO2 SLP270 T00611017
KFZY 141754Z AUTO 28003KT 10SM OVC065 06/M02 A3033 RMK AO2 SLP274 T00561017 10061 20022 58015
KFZY 141654Z AUTO 30007KT OVC065 05/M01 A3034 RMK AO2 SLP279 T00501011 $
KFZY 141554Z AUTO 00000KT 10SM OVC065 04/M01 A3037 RMK AO2 SLP288 T00441006
KFZY 141454Z AUTO 35003KT 10SM OVC060 04/M01 A3037 RMK AO2 SLP290 T00391011 50006
KFZY 141354Z AUTO 00000KT 10SM OVC060 03/M01 A3037 RMK AO2 SLP290 T00331011
KFZY 141254Z AUTO 00000KT 10SM OVC060 02/00 A3036 RMK AO2 SLP286 T00220000
KFZY 141154Z AUTO 02003KT 10SM OVC060 02/M01 A3036 RMK AO2 SLP284 70002 T00221006 10028 20022 51004
KFZY 141054Z AUTO 02003KT 7SM FEW036 OVC060 02/01 A3035 RMK AO2 SLP282 T00220006 $
KFZY 140954Z AUTO 00000KT 6SM BR FEW035 OVC060 02/01 A3035 RMK AO2 SLP283 T00220011 $
KFZY 140909Z AUTO 00000KT 6SM BR FEW023 BKN031 OVC037 02/01 A3035 RMK AO2 T00220011 $
KFZY 140854Z AUTO 00000KT FEW023 BKN029 OVC060 02/01 A3034 RMK AO2 SLP280 T00220011 56001 $
KFZY 140754Z AUTO 00000KT 8SM OVC023 03/01 A3035 RMK AO2 SLP281 T00280011 $
KFZY 140654Z AUTO 00000KT 9SM OVC022 03/01 A3034 RMK AO2 SLP279 T00280006 $
KFZY 140554Z AUTO 00000KT 9SM OVC018 03/01 A3035 RMK AO2 SLP281 60000 T00280006 10039 20028 56002 $
KFZY 140509Z AUTO 03003KT 8SM OVC017 03/01 A3035 RMK AO2 T00280006 $
KFZY 140454Z AUTO 00000KT 8SM OVC013 03/01 A3035 RMK AO2 SLP282 T00280011 400500000 $
KFZY 140354Z AUTO 00000KT 6SM BR OVC012 03/02 A3035 RMK AO2 SLP282 T00330017 $
KFZY 140254Z AUTO 00000KT 4SM BR OVC013 03/02 A3036 RMK AO2 SLP284 60000 T00330022 58003 $
KFZY 140154Z AUTO 00000KT 3SM BR OVC014 03/02 A3036 RMK AO2 SLP285 T00330022 $
KFZY 140140Z AUTO 00000KT 3SM BR BKN013 OVC022 03/02 A3036 RMK AO2 T00330022 $
KFZY 140121Z AUTO 00000KT 3SM BR SCT011 OVC020 03/02 A3037 RMK AO2 T00330022 $
KFZY 140054Z AUTO 00000KT 3SM BR OVC012 03/02 A3037 RMK AO2 RAB06E19 SLP287 P0000 T00330022 $
KFZY 132354Z AUTO 00000KT 5SM BR OVC013 03/02 A3036 RMK AO2 RAE36 SLP287 P0000 60000 T00330022 10050 20033 53006 $
KFZY 132254Z AUTO 00000KT 5SM -RA BR OVC012 04/02 A3036 RMK AO2 RAB38 SLP284 P0000 T00390017 $
KFZY 132154Z AUTO 03003KT OVC012 04/02 A3035 RMK AO2 SLP283 T00390017 $
KFZY 132054Z AUTO 04003KT 9SM OVC014 04/01 A3035 RMK AO2 SLP281 T00390011 53004
KFZY 132046Z AUTO 03003KT 10SM OVC014 04/01 A3035 RMK AO2 T00390011
KFZY 131954Z AUTO 35004KT 10SM OVC015 04/01 A3034 RMK AO2 SLP279 T00440011
KFZY 131854Z AUTO 00000KT 10SM OVC015 04/01 A3033 RMK AO2 SLP276 T00440006
KFZY 131816Z AUTO 00000KT 10SM OVC016 04/01 A3033 RMK AO2 T00440011
KFZY 131754Z AUTO 00000KT 9SM OVC014 04/01 A3033 RMK AO2 SLP276 60002 T00390011 10044 20000 58008
KFZY 131720Z AUTO 00000KT 9SM BKN012 OVC030 04/02 A3034 RMK AO2 T00440017
KFZY 131713Z AUTO 12003KT 9SM SCT009 BKN015 OVC030 04/01 A3034 RMK AO2 T00390011
KFZY 131654Z AUTO 00000KT 8SM BKN010 OVC030 04/01 A3035 RMK AO2 SLP281 T00390011
KFZY 131554Z AUTO VRB05KT 6SM BR OVC006 03/01 A3036 RMK AO2 SLP285 T00280011
KFZY 131513Z AUTO 12005KT 5SM BR BKN005 OVC032 02/01 A3036 RMK AO2 T00220006
KFZY 131454Z AUTO 12004KT 4SM BR SCT004 OVC032 02/01 A3036 RMK AO2 UPB00E02RAB02E15SNE00 SLP285 P0000 60002 T00170006 58001
KFZY 131450Z AUTO VRB03KT 4SM BR FEW004 OVC032 02/01 A3036 RMK AO2 UPB00E02RAB02E15SNE00 P0000
KFZY 131412Z AUTO VRB03KT 3SM -RA BR OVC034 01/00 A3036 RMK AO2 UPB00E02RAB02SNE00 P0000 T00110000
KFZY 131401Z AUTO 00000KT 2SM UP BR FEW004 OVC033 01/00 A3036 RMK AO2 UPB00SNE00 P0000 T00110000
KFZY 131354Z AUTO VRB03KT 1 3/4SM -SN BR FEW004 OVC033 01/00 A3036 RMK AO2 SLP286 P0001 T00110000
KFZY 131352Z AUTO 11003KT 1 1/2SM -SN BR OVC033 01/00 A3036 RMK AO2 P0001